Time;durP1;ratioP1;P1;durP2;ratioP2;P2;SDS_P1;SDS_P2;PMS_P1;PMS_P2;Temp;Humidity;BMP_temperature;BMP_pressure;BME280_temperature;BME280_humidity;BME280_pressure;Samples;Min_cycle;Max_cycle;Signal;HPM_P1;HPM_P2
2022/07/24 00:02:12;;;;;;;;;;;27.60;48.40;;;;;;5023612;28;87056;-37
2022/07/24 00:04:38;;;;;;;;;;;27.60;48.50;;;;;;5023927;28;87040;-37
2022/07/24 00:07:03;;;;;;;;;;;27.50;48.50;;;;;;5023036;28;88175;-37
2022/07/24 00:09:29;;;;;;;;;;;27.50;48.40;;;;;;5023505;28;87112;-36
2022/07/24 00:11:54;;;;;;;;;;;27.50;48.40;;;;;;5023086;28;88588;-36
2022/07/24 00:14:20;;;;;;;;;;;27.50;48.40;;;;;;5022989;28;88081;-37
2022/07/24 00:16:45;;;;;;;;;;;27.50;48.40;;;;;;5023487;28;87194;-37
2022/07/24 00:19:11;;;;;;;;;;;27.40;48.40;;;;;;5022995;28;87589;-36
2022/07/24 00:21:36;;;;;;;;;;;27.50;48.50;;;;;;5025924;28;88173;-37
2022/07/24 00:24:02;;;;;;;;;;;27.40;48.40;;;;;;5023338;28;87589;-37
2022/07/24 00:26:27;;;;;;;;;;;27.40;48.40;;;;;;5022900;28;87936;-36
2022/07/24 00:28:53;;;;;;;;;;;27.40;48.40;;;;;;5023659;28;86414;-37
2022/07/24 00:31:19;;;;;;;;;;;27.40;48.40;;;;;;5023062;28;88129;-37
2022/07/24 00:33:45;;;;;;;;;;;27.30;48.30;;;;;;5022558;28;87957;-37
2022/07/24 00:36:10;;;;;;;;;;;27.30;48.40;;;;;;5022272;28;88051;-37
2022/07/24 00:38:36;;;;;;;;;;;27.30;48.20;;;;;;5022847;28;88955;-37
2022/07/24 00:41:01;;;;;;;;;;;27.30;48.30;;;;;;5022663;28;88047;-37
2022/07/24 00:43:27;;;;;;;;;;;27.30;48.40;;;;;;5025980;28;87174;-37
2022/07/24 00:45:52;;;;;;;;;;;27.30;48.30;;;;;;5022448;28;88027;-37
2022/07/24 00:48:18;;;;;;;;;;;27.30;48.30;;;;;;5023023;28;86890;-37
2022/07/24 00:50:43;;;;;;;;;;;27.30;48.30;;;;;;5022892;28;87539;-37
2022/07/24 00:53:09;;;;;;;;;;;27.20;48.20;;;;;;5023178;28;87378;-36
2022/07/24 00:55:35;;;;;;;;;;;27.20;48.30;;;;;;5022802;28;87502;-37
2022/07/24 00:58:00;;;;;;;;;;;27.20;48.30;;;;;;5022766;28;87558;-37
2022/07/24 01:00:26;;;;;;;;;;;27.20;48.30;;;;;;5021726;28;89046;-37
2022/07/24 01:02:52;;;;;;;;;;;27.20;48.80;;;;;;5022786;28;87132;-37
2022/07/24 01:05:18;;;;;;;;;;;27.10;48.20;;;;;;5024847;28;87448;-37
2022/07/24 01:07:43;;;;;;;;;;;27.10;48.30;;;;;;5022549;28;87027;-37
2022/07/24 01:10:09;;;;;;;;;;;27.10;48.20;;;;;;5022601;28;87891;-37
2022/07/24 01:12:36;;;;;;;;;;;27.10;48.30;;;;;;5022350;28;88372;-37
2022/07/24 01:15:02;;;;;;;;;;;27.10;48.20;;;;;;5022472;28;87145;-36
2022/07/24 01:17:31;;;;;;;;;;;27.10;48.20;;;;;;5023004;28;87048;-37
2022/07/24 01:19:57;;;;;;;;;;;27.00;48.20;;;;;;5021946;28;87879;-37
2022/07/24 01:22:23;;;;;;;;;;;27.00;48.20;;;;;;5022354;28;87145;-37
2022/07/24 01:24:49;;;;;;;;;;;27.00;48.20;;;;;;5021729;28;87878;-37
2022/07/24 01:27:14;;;;;;;;;;;27.00;48.20;;;;;;5025080;28;87962;-37
2022/07/24 01:29:40;;;;;;;;;;;26.90;48.20;;;;;;5022242;28;87019;-37
2022/07/24 01:32:06;;;;;;;;;;;26.90;48.20;;;;;;5022179;28;88458;-36
2022/07/24 01:34:31;;;;;;;;;;;26.90;48.10;;;;;;5021823;28;87117;-36
2022/07/24 01:36:57;;;;;;;;;;;26.90;48.20;;;;;;5022096;28;87856;-37
2022/07/24 01:39:22;;;;;;;;;;;26.90;48.20;;;;;;5021764;28;87572;-37
2022/07/24 01:41:48;;;;;;;;;;;26.90;48.20;;;;;;5022644;28;86539;-36
2022/07/24 01:44:13;;;;;;;;;;;26.80;48.20;;;;;;5022167;28;86989;-36
2022/07/24 01:46:39;;;;;;;;;;;26.80;48.10;;;;;;5024404;28;88170;-37
2022/07/24 01:49:04;;;;;;;;;;;26.80;48.10;;;;;;5021227;28;87912;-37
2022/07/24 01:51:30;;;;;;;;;;;26.80;48.20;;;;;;5021820;28;88335;-36
2022/07/24 01:53:55;;;;;;;;;;;26.80;48.10;;;;;;5021921;28;87047;-37
2022/07/24 01:56:21;;;;;;;;;;;26.80;48.20;;;;;;5022004;28;87457;-36
2022/07/24 01:58:46;;;;;;;;;;;26.80;48.10;;;;;;5021619;28;88191;-37
2022/07/24 02:01:12;;;;;;;;;;;26.70;48.10;;;;;;5021921;28;87166;-37
2022/07/24 02:03:38;;;;;;;;;;;26.70;48.20;;;;;;5021813;28;87482;-37
2022/07/24 02:06:04;;;;;;;;;;;26.70;48.20;;;;;;5021902;28;87447;-37
2022/07/24 02:08:29;;;;;;;;;;;26.70;48.20;;;;;;5024570;28;86884;-37
2022/07/24 02:10:55;;;;;;;;;;;26.60;48.10;;;;;;5021413;28;88010;-37
2022/07/24 02:13:21;;;;;;;;;;;26.60;48.20;;;;;;5024152;28;88022;-37
2022/07/24 02:15:46;;;;;;;;;;;26.60;48.10;;;;;;5025396;28;88400;-36
2022/07/24 02:18:11;;;;;;;;;;;26.60;48.20;;;;;;5024766;28;88366;-37
2022/07/24 02:20:37;;;;;;;;;;;26.60;48.20;;;;;;5025207;28;87067;-37
2022/07/24 02:23:03;;;;;;;;;;;26.60;48.20;;;;;;5025259;28;87560;-36
2022/07/24 02:25:28;;;;;;;;;;;26.50;48.20;;;;;;5024721;28;88262;-37
2022/07/24 02:27:54;;;;;;;;;;;26.50;48.20;;;;;;5025164;28;87069;-36
2022/07/24 02:30:20;;;;;;;;;;;26.50;48.20;;;;;;5028052;28;87415;-37
2022/07/24 02:32:46;;;;;;;;;;;26.50;48.20;;;;;;5024997;28;87087;-37
2022/07/24 02:35:12;;;;;;;;;;;26.50;48.10;;;;;;5024949;28;87527;-36
2022/07/24 02:37:38;;;;;;;;;;;26.50;48.20;;;;;;5023806;28;88983;-36
2022/07/24 02:40:04;;;;;;;;;;;26.50;48.20;;;;;;5024661;28;87142;-37
2022/07/24 02:42:30;;;;;;;;;;;26.40;48.20;;;;;;5024683;28;87410;-37
2022/07/24 02:44:56;;;;;;;;;;;26.40;48.10;;;;;;5024366;28;87972;-36
2022/07/24 02:47:21;;;;;;;;;;;26.40;48.10;;;;;;5024139;28;87118;-36
2022/07/24 02:49:47;;;;;;;;;;;26.40;48.20;;;;;;5024544;28;87591;-36
2022/07/24 02:52:12;;;;;;;;;;;26.30;48.10;;;;;;5027300;28;88041;-37
2022/07/24 02:54:37;;;;;;;;;;;26.30;48.10;;;;;;5025079;28;86635;-36
2022/07/24 02:57:03;;;;;;;;;;;26.30;48.10;;;;;;5024329;28;88321;-37
2022/07/24 02:59:28;;;;;;;;;;;26.30;48.20;;;;;;5024659;28;87065;-36
2022/07/24 03:01:54;;;;;;;;;;;26.30;48.00;;;;;;5024082;28;87987;-36
2022/07/24 03:04:19;;;;;;;;;;;26.20;48.00;;;;;;5024232;28;88052;-37
2022/07/24 03:06:45;;;;;;;;;;;26.20;48.00;;;;;;5024220;28;87173;-37
2022/07/24 03:09:10;;;;;;;;;;;26.20;48.10;;;;;;5024278;28;87480;-37
2022/07/24 03:11:36;;;;;;;;;;;26.20;48.10;;;;;;5024123;28;88015;-36
2022/07/24 03:14:02;;;;;;;;;;;26.20;48.10;;;;;;5026933;28;87041;-37
2022/07/24 03:16:27;;;;;;;;;;;26.20;48.10;;;;;;5024296;28;88113;-36
2022/07/24 03:18:53;;;;;;;;;;;26.10;48.00;;;;;;5024835;28;86847;-36
2022/07/24 03:21:19;;;;;;;;;;;26.10;48.20;;;;;;5024180;28;87066;-36
2022/07/24 03:23:44;;;;;;;;;;;26.10;48.20;;;;;;5022743;28;88042;-36
2022/07/24 03:26:10;;;;;;;;;;;26.10;48.20;;;;;;5023576;28;88068;-36
2022/07/24 03:28:35;;;;;;;;;;;26.00;48.00;;;;;;5024353;28;87833;-36
2022/07/24 03:31:01;;;;;;;;;;;26.00;48.10;;;;;;5023597;28;88081;-36
2022/07/24 03:33:27;;;;;;;;;;;26.00;48.10;;;;;;5023979;28;87176;-37
2022/07/24 03:35:53;;;;;;;;;;;26.00;48.10;;;;;;5026388;28;87560;-36
2022/07/24 03:38:18;;;;;;;;;;;26.00;48.10;;;;;;5023987;28;87185;-36
2022/07/24 03:40:44;;;;;;;;;;;26.00;48.10;;;;;;5024182;28;87538;-36
2022/07/24 03:43:09;;;;;;;;;;;26.00;48.10;;;;;;5024078;28;87268;-36
2022/07/24 03:45:35;;;;;;;;;;;25.90;48.10;;;;;;5023218;28;87147;-36
2022/07/24 03:48:00;;;;;;;;;;;25.90;48.20;;;;;;5023825;28;86932;-36
2022/07/24 03:50:26;;;;;;;;;;;25.90;48.10;;;;;;5022512;28;89049;-36
2022/07/24 03:52:51;;;;;;;;;;;25.90;48.10;;;;;;5023922;28;87104;-36
2022/07/24 03:55:17;;;;;;;;;;;25.90;48.10;;;;;;5026242;28;87524;-36
2022/07/24 03:57:44;;;;;;;;;;;25.80;48.10;;;;;;5023480;28;87112;-36
2022/07/24 04:00:10;;;;;;;;;;;25.90;48.10;;;;;;5023642;28;87105;-36
2022/07/24 04:02:35;;;;;;;;;;;25.80;48.10;;;;;;5023335;28;88632;-36
2022/07/24 04:05:01;;;;;;;;;;;25.80;48.20;;;;;;5023606;28;88111;-36
2022/07/24 04:07:26;;;;;;;;;;;25.80;48.20;;;;;;5023727;28;87464;-36
2022/07/24 04:09:52;;;;;;;;;;;25.70;48.20;;;;;;5023184;28;87354;-36
2022/07/24 04:12:17;;;;;;;;;;;25.70;48.10;;;;;;5023630;28;87567;-36
2022/07/24 04:14:43;;;;;;;;;;;25.70;48.10;;;;;;5022726;28;88022;-37
2022/07/24 04:17:08;;;;;;;;;;;25.70;48.20;;;;;;5024592;28;91283;-36
2022/07/24 04:19:34;;;;;;;;;;;25.70;48.20;;;;;;5023259;28;87375;-37
2022/07/24 04:21:59;;;;;;;;;;;25.70;48.20;;;;;;5023110;28;87944;-36
2022/07/24 04:24:25;;;;;;;;;;;25.70;48.20;;;;;;5023482;28;87078;-36
2022/07/24 04:26:50;;;;;;;;;;;25.70;48.20;;;;;;5023336;28;87379;-36
2022/07/24 04:29:16;;;;;;;;;;;25.70;48.30;;;;;;5022916;28;88035;-36
2022/07/24 04:31:41;;;;;;;;;;;25.70;48.30;;;;;;5023788;28;86362;-36
2022/07/24 04:34:07;;;;;;;;;;;25.60;48.30;;;;;;5022807;28;86974;-36
2022/07/24 04:36:32;;;;;;;;;;;25.60;48.30;;;;;;5022546;28;88227;-36
2022/07/24 04:38:58;;;;;;;;;;;25.60;48.20;;;;;;5025419;28;88076;-36
2022/07/24 04:41:23;;;;;;;;;;;25.60;48.40;;;;;;5022537;28;88444;-36
2022/07/24 04:43:49;;;;;;;;;;;25.60;48.40;;;;;;5023162;28;87467;-36
2022/07/24 04:46:15;;;;;;;;;;;25.60;48.30;;;;;;5022600;28;87654;-36
2022/07/24 04:48:41;;;;;;;;;;;25.50;48.40;;;;;;5022404;28;87830;-37
2022/07/24 04:51:06;;;;;;;;;;;25.50;48.30;;;;;;5022772;28;87530;-36
2022/07/24 04:53:32;;;;;;;;;;;25.50;48.30;;;;;;5022904;28;87461;-37
2022/07/24 04:55:57;;;;;;;;;;;25.50;48.40;;;;;;5022921;28;87379;-36
2022/07/24 04:58:23;;;;;;;;;;;25.50;48.30;;;;;;5022474;28;87141;-36
2022/07/24 05:00:48;;;;;;;;;;;25.50;48.30;;;;;;5025076;28;87404;-36
2022/07/24 05:03:14;;;;;;;;;;;25.50;48.30;;;;;;5022169;28;88001;-36
2022/07/24 05:05:39;;;;;;;;;;;25.50;48.40;;;;;;5022537;28;88387;-37
2022/07/24 05:08:05;;;;;;;;;;;25.50;48.50;;;;;;5022206;28;88129;-36
2022/07/24 05:10:30;;;;;;;;;;;25.50;48.50;;;;;;5022672;28;87142;-36
2022/07/24 05:12:56;;;;;;;;;;;25.40;48.40;;;;;;5022619;28;87472;-36
2022/07/24 05:15:21;;;;;;;;;;;25.40;48.40;;;;;;5022077;28;88102;-36
2022/07/24 05:17:47;;;;;;;;;;;25.50;48.50;;;;;;5022435;28;87210;-36
2022/07/24 05:20:13;;;;;;;;;;;25.40;48.50;;;;;;5022913;28;87271;-36
2022/07/24 05:22:38;;;;;;;;;;;25.40;48.60;;;;;;5024741;28;88218;-36
2022/07/24 05:25:04;;;;;;;;;;;25.40;48.50;;;;;;5022633;28;87551;-36
2022/07/24 05:27:30;;;;;;;;;;;25.40;48.60;;;;;;5021279;28;90814;-36
2022/07/24 05:29:55;;;;;;;;;;;25.40;48.70;;;;;;5022297;28;87125;-36
2022/07/24 05:32:21;;;;;;;;;;;25.40;48.70;;;;;;5022370;28;87604;-36
2022/07/24 05:34:46;;;;;;;;;;;25.40;48.70;;;;;;5021990;28;87943;-36
2022/07/24 05:37:12;;;;;;;;;;;25.40;48.80;;;;;;5022105;28;87262;-36
2022/07/24 05:39:37;;;;;;;;;;;25.40;48.80;;;;;;5022276;28;87475;-36
2022/07/24 05:42:03;;;;;;;;;;;25.40;49.40;;;;;;5021740;28;88116;-36
2022/07/24 05:44:29;;;;;;;;;;;25.40;48.80;;;;;;5025536;28;86327;-36
2022/07/24 05:46:54;;;;;;;;;;;25.40;48.80;;;;;;5022568;28;88275;-36
2022/07/24 05:49:20;;;;;;;;;;;25.30;48.80;;;;;;5025820;28;87135;-36
2022/07/24 05:51:45;;;;;;;;;;;25.30;48.90;;;;;;5024936;28;88045;-36
2022/07/24 05:54:11;;;;;;;;;;;25.40;48.90;;;;;;5023659;28;91560;-36
2022/07/24 05:56:36;;;;;;;;;;;25.40;49.00;;;;;;5025624;28;87205;-36
2022/07/24 05:59:01;;;;;;;;;;;25.40;49.10;;;;;;5025593;28;87502;-36
2022/07/24 06:01:27;;;;;;;;;;;25.40;49.00;;;;;;5025005;28;88188;-36
2022/07/24 06:03:52;;;;;;;;;;;25.40;49.10;;;;;;5028396;28;87114;-36
2022/07/24 06:06:18;;;;;;;;;;;25.30;49.00;;;;;;5024818;28;87212;-36
2022/07/24 06:08:45;;;;;;;;;;;25.40;49.20;;;;;;5025448;28;86379;-36
2022/07/24 06:11:10;;;;;;;;;;;25.40;49.20;;;;;;5025122;28;88151;-36
2022/07/24 06:13:36;;;;;;;;;;;25.30;49.20;;;;;;5024735;28;87987;-36
2022/07/24 06:16:01;;;;;;;;;;;25.30;49.20;;;;;;5024059;28;88085;-36
2022/07/24 06:18:27;;;;;;;;;;;25.40;49.30;;;;;;5024923;28;89868;-36
2022/07/24 06:20:52;;;;;;;;;;;25.30;49.20;;;;;;5024493;28;88087;-36
2022/07/24 06:23:18;;;;;;;;;;;25.40;49.30;;;;;;5025139;28;87062;-36
2022/07/24 06:25:43;;;;;;;;;;;25.40;49.30;;;;;;5027623;28;86888;-36
2022/07/24 06:28:09;;;;;;;;;;;25.30;49.30;;;;;;5025119;28;87024;-36
2022/07/24 06:30:34;;;;;;;;;;;25.30;49.40;;;;;;5024996;28;87350;-36
2022/07/24 06:33:00;;;;;;;;;;;25.40;49.40;;;;;;5025367;28;87372;-36
2022/07/24 06:35:26;;;;;;;;;;;25.30;49.40;;;;;;5024876;28;87206;-36
2022/07/24 06:37:52;;;;;;;;;;;25.40;49.40;;;;;;5024822;28;87176;-36
2022/07/24 06:40:18;;;;;;;;;;;25.40;49.40;;;;;;5023785;28;89103;-36
2022/07/24 06:42:44;;;;;;;;;;;25.40;49.40;;;;;;5024851;28;86995;-36
2022/07/24 06:45:10;;;;;;;;;;;25.40;49.50;;;;;;5024416;28;87612;-36
2022/07/24 06:47:35;;;;;;;;;;;25.40;49.50;;;;;;5027363;28;88462;-36
2022/07/24 06:50:01;;;;;;;;;;;25.40;49.50;;;;;;5024946;28;88682;-36
2022/07/24 06:52:27;;;;;;;;;;;25.40;49.50;;;;;;5024332;28;88126;-36
2022/07/24 06:54:52;;;;;;;;;;;25.40;49.50;;;;;;5024574;28;87117;-36
2022/07/24 06:57:18;;;;;;;;;;;25.40;49.60;;;;;;5024983;28;87253;-36
2022/07/24 06:59:44;;;;;;;;;;;25.30;49.60;;;;;;5023839;28;89549;-36
2022/07/24 07:02:10;;;;;;;;;;;25.40;49.70;;;;;;5024642;28;87093;-36
2022/07/24 07:04:35;;;;;;;;;;;25.40;49.70;;;;;;5023895;28;87903;-36
2022/07/24 07:07:02;;;;;;;;;;;25.30;49.60;;;;;;5023557;28;88607;-36
2022/07/24 07:09:27;;;;;;;;;;;25.40;49.70;;;;;;5027365;28;87286;-36
2022/07/24 07:11:52;;;;;;;;;;;25.30;49.70;;;;;;5023957;28;88062;-36
2022/07/24 07:14:18;;;;;;;;;;;25.40;49.80;;;;;;5024111;28;87144;-36
2022/07/24 07:16:44;;;;;;;;;;;25.40;49.80;;;;;;5024213;28;87046;-36
2022/07/24 07:19:09;;;;;;;;;;;25.40;49.80;;;;;;5023832;28;88266;-36
2022/07/24 07:21:36;;;;;;;;;;;25.40;49.90;;;;;;5024761;28;86472;-36
2022/07/24 07:24:01;;;;;;;;;;;25.30;49.90;;;;;;5024034;28;87062;-36
2022/07/24 07:26:27;;;;;;;;;;;25.30;49.80;;;;;;5023930;28;88908;-36
2022/07/24 07:28:53;;;;;;;;;;;25.40;49.90;;;;;;5023445;28;88155;-36
2022/07/24 07:31:18;;;;;;;;;;;25.40;50.00;;;;;;5026738;28;88408;-36
2022/07/24 07:33:44;;;;;;;;;;;25.40;50.00;;;;;;5023694;28;87166;-36
2022/07/24 07:36:09;;;;;;;;;;;25.40;50.10;;;;;;5023748;28;87433;-36
2022/07/24 07:38:37;;;;;;;;;;;25.40;50.00;;;;;;5023553;28;88505;-36
2022/07/24 07:41:03;;;;;;;;;;;25.40;50.00;;;;;;5023927;28;86916;-36
2022/07/24 07:43:28;;;;;;;;;;;25.40;50.10;;;;;;5023814;28;87186;-36
2022/07/24 07:45:54;;;;;;;;;;;25.40;50.10;;;;;;5023622;28;86510;-36
2022/07/24 07:48:19;;;;;;;;;;;25.40;50.10;;;;;;5023860;28;87069;-36
2022/07/24 07:50:45;;;;;;;;;;;25.40;50.00;;;;;;5026298;28;87515;-36
2022/07/24 07:53:10;;;;;;;;;;;25.40;50.00;;;;;;5023048;28;88098;-36
2022/07/24 07:55:36;;;;;;;;;;;25.40;50.20;;;;;;5023948;28;88324;-36
2022/07/24 07:58:01;;;;;;;;;;;25.40;50.10;;;;;;5023252;28;87909;-36
2022/07/24 08:00:27;;;;;;;;;;;25.40;50.10;;;;;;5023487;28;87037;-36
2022/07/24 08:02:53;;;;;;;;;;;25.40;50.10;;;;;;5023664;28;87691;-36
2022/07/24 08:05:18;;;;;;;;;;;25.50;50.10;;;;;;5022945;28;89436;-36
2022/07/24 08:07:44;;;;;;;;;;;25.50;50.00;;;;;;5023184;28;88450;-36
2022/07/24 08:10:09;;;;;;;;;;;25.50;50.70;;;;;;5022940;28;86562;-36
2022/07/24 08:12:35;;;;;;;;;;;25.50;50.10;;;;;;5025815;28;89416;-36
2022/07/24 08:15:00;;;;;;;;;;;25.50;50.10;;;;;;5023394;28;87098;-36
2022/07/24 08:17:26;;;;;;;;;;;25.50;50.00;;;;;;5022276;28;89369;-36
2022/07/24 08:19:51;;;;;;;;;;;25.50;50.00;;;;;;5023208;28;87037;-36
2022/07/24 08:22:17;;;;;;;;;;;25.50;50.00;;;;;;5023204;28;87512;-36
2022/07/24 08:24:43;;;;;;;;;;;25.50;50.00;;;;;;5023022;28;88086;-36
2022/07/24 08:27:09;;;;;;;;;;;25.50;50.00;;;;;;5023362;28;87222;-36
2022/07/24 08:29:34;;;;;;;;;;;25.50;50.00;;;;;;5023335;28;87404;-36
2022/07/24 08:32:00;;;;;;;;;;;25.50;50.00;;;;;;5022545;28;88802;-36
2022/07/24 08:34:25;;;;;;;;;;;25.50;50.00;;;;;;5026216;28;87023;-36
2022/07/24 08:36:51;;;;;;;;;;;25.60;50.00;;;;;;5022595;28;87304;-36
2022/07/24 08:39:17;;;;;;;;;;;25.60;50.00;;;;;;5023028;28;87430;-36
2022/07/24 08:41:43;;;;;;;;;;;25.60;50.00;;;;;;5022671;28;88004;-36
2022/07/24 08:44:09;;;;;;;;;;;25.70;49.90;;;;;;5022943;28;88397;-36
2022/07/24 08:46:38;;;;;;;;;;;25.70;49.90;;;;;;5022584;28;87094;-36
2022/07/24 08:49:10;;;;;;;;;;;25.70;49.90;;;;;;5022792;28;86993;-36
2022/07/24 08:51:37;;;;;;;;;;;25.70;49.90;;;;;;5022557;28;88096;-36
2022/07/24 08:54:03;;;;;;;;;;;25.70;49.90;;;;;;5022643;28;87112;-36
2022/07/24 08:56:29;;;;;;;;;;;25.70;49.80;;;;;;5025330;28;87440;-36
2022/07/24 08:58:55;;;;;;;;;;;25.70;49.90;;;;;;5023355;28;86478;-36
2022/07/24 09:01:21;;;;;;;;;;;25.70;49.90;;;;;;5022570;28;86885;-36
2022/07/24 09:03:47;;;;;;;;;;;25.70;49.90;;;;;;5021929;28;87038;-36
2022/07/24 09:06:13;;;;;;;;;;;25.70;49.90;;;;;;5021787;28;88159;-36
2022/07/24 09:08:43;;;;;;;;;;;25.70;49.90;;;;;;5022157;28;87675;-36
2022/07/24 09:11:09;;;;;;;;;;;25.70;49.90;;;;;;5021862;28;88127;-36
2022/07/24 09:14:36;;;;;;;;;;;25.70;49.80;;;;;;5022133;28;87136;-36
2022/07/24 09:16:32;;;;;;;;;;;25.80;49.90;;;;;;5003850;28;87050;-36
2022/07/24 09:19:03;;;;;;;;;;;25.80;49.90;;;;;;5023008;28;91160;-36
2022/07/24 09:21:31;;;;;;;;;;;25.80;49.90;;;;;;5020754;28;87994;-36
2022/07/24 09:24:02;;;;;;;;;;;25.80;49.90;;;;;;5022201;28;87416;-36
2022/07/24 09:26:47;;;;;;;;;;;25.80;49.90;;;;;;5022194;28;86845;-36
2022/07/24 09:29:12;;;;;;;;;;;25.80;49.90;;;;;;5021620;28;88223;-36
2022/07/24 09:31:56;;;;;;;;;;;25.80;50.00;;;;;;5020999;28;88886;-36
2022/07/24 09:34:22;;;;;;;;;;;25.80;50.10;;;;;;5022055;28;87114;-36
2022/07/24 09:37:07;;;;;;;;;;;25.80;50.00;;;;;;5022158;28;87007;-36
2022/07/24 09:39:33;;;;;;;;;;;25.80;50.00;;;;;;5021416;28;88086;-36
2022/07/24 09:41:59;;;;;;;;;;;25.80;50.00;;;;;;5024946;28;86966;-36
2022/07/24 09:44:25;;;;;;;;;;;25.80;50.00;;;;;;5021641;28;88059;-36
2022/07/24 09:47:02;;;;;;;;;;;25.80;50.10;;;;;;5021510;28;87122;-36
2022/07/24 09:49:28;;;;;;;;;;;25.90;50.10;;;;;;5022069;28;88869;-36
2022/07/24 09:52:06;;;;;;;;;;;25.90;50.20;;;;;;5021280;28;88582;-36
2022/07/24 09:54:32;;;;;;;;;;;25.90;50.10;;;;;;5021534;28;87143;-36
2022/07/24 09:57:17;;;;;;;;;;;25.90;50.10;;;;;;5021153;28;87832;-36
2022/07/24 09:59:51;;;;;;;;;;;25.90;50.10;;;;;;5021425;28;89153;-36
2022/07/24 10:02:18;;;;;;;;;;;26.00;50.00;;;;;;5024431;28;87146;-36
2022/07/24 10:04:44;;;;;;;;;;;26.00;50.70;;;;;;5020971;28;87550;-36
2022/07/24 10:07:11;;;;;;;;;;;26.00;50.00;;;;;;5021533;28;87389;-35
2022/07/24 10:09:39;;;;;;;;;;;26.00;50.00;;;;;;5021175;28;88515;-36
2022/07/24 10:12:05;;;;;;;;;;;26.10;50.10;;;;;;5021328;28;88106;-36
2022/07/24 10:14:30;;;;;;;;;;;26.10;50.00;;;;;;5021873;28;86307;-36
2022/07/24 10:17:15;;;;;;;;;;;26.10;50.00;;;;;;5021471;28;86967;-36
2022/07/24 10:19:40;;;;;;;;;;;26.10;50.00;;;;;;5021274;28;87970;-36
2022/07/24 10:22:09;;;;;;;;;;;26.10;50.00;;;;;;5020526;28;88160;-36
2022/07/24 10:24:41;;;;;;;;;;;26.20;50.00;;;;;;5023715;28;89986;-36
2022/07/24 10:27:10;;;;;;;;;;;26.20;50.00;;;;;;5021420;28;87166;-36
2022/07/24 10:29:35;;;;;;;;;;;26.20;50.00;;;;;;5021127;28;87549;-36
2022/07/24 10:32:01;;;;;;;;;;;26.20;50.00;;;;;;5020810;28;88308;-36
2022/07/24 10:34:31;;;;;;;;;;;26.30;50.10;;;;;;5024401;28;87094;-36
2022/07/24 10:37:15;;;;;;;;;;;26.30;50.10;;;;;;5024594;28;87394;-36
2022/07/24 10:39:49;;;;;;;;;;;26.40;50.10;;;;;;5025022;28;86664;-36
2022/07/24 10:42:15;;;;;;;;;;;26.30;50.10;;;;;;5024394;28;87115;-36
2022/07/24 10:44:41;;;;;;;;;;;26.40;50.10;;;;;;5024272;28;88677;-36
2022/07/24 10:47:07;;;;;;;;;;;26.40;50.10;;;;;;5025974;28;90431;-36
2022/07/24 10:49:53;;;;;;;;;;;26.40;50.10;;;;;;5024373;28;88651;-36
2022/07/24 10:52:23;;;;;;;;;;;26.40;50.10;;;;;;5024039;28;89655;-36
2022/07/24 10:55:09;;;;;;;;;;;26.40;50.10;;;;;;5024112;28;87094;-36
2022/07/24 10:57:48;;;;;;;;;;;26.40;50.00;;;;;;5016305;28;87343;-36
2022/07/24 11:00:25;;;;;;;;;;;26.50;50.20;;;;;;5023560;28;89574;-36
2022/07/24 11:02:55;;;;;;;;;;;26.50;50.10;;;;;;5024278;28;87237;-36
2022/07/24 11:05:29;;;;;;;;;;;26.50;50.00;;;;;;5024747;28;87598;-36
2022/07/24 11:08:13;;;;;;;;;;;26.50;50.10;;;;;;5023723;28;88005;-36
2022/07/24 11:10:59;;;;;;;;;;;26.50;50.10;;;;;;5027193;28;87110;-36
2022/07/24 11:13:31;;;;;;;;;;;26.60;50.10;;;;;;5022755;28;90936;-36
2022/07/24 11:16:11;;;;;;;;;;;26.60;50.20;;;;;;5023972;28;87169;-36
2022/07/24 11:18:36;;;;;;;;;;;26.70;50.20;;;;;;5024080;28;87389;-36
2022/07/24 11:21:02;;;;;;;;;;;26.70;50.00;;;;;;5023482;28;88050;-36
2022/07/24 11:23:28;;;;;;;;;;;26.70;50.00;;;;;;5024051;28;87228;-36
2022/07/24 11:26:12;;;;;;;;;;;26.80;50.10;;;;;;5024276;28;87989;-36
2022/07/24 11:28:38;;;;;;;;;;;26.80;50.10;;;;;;5023585;28;88311;-36
2022/07/24 11:31:03;;;;;;;;;;;26.70;50.00;;;;;;5024279;28;86461;-36
2022/07/24 11:33:29;;;;;;;;;;;26.80;50.00;;;;;;5026759;28;87035;-36
2022/07/24 11:35:55;;;;;;;;;;;26.80;50.10;;;;;;5023570;28;87024;-36
2022/07/24 11:38:27;;;;;;;;;;;26.90;50.10;;;;;;5023386;28;88062;-36
2022/07/24 11:41:03;;;;;;;;;;;26.90;50.10;;;;;;5023427;28;88093;-36
2022/07/24 11:43:29;;;;;;;;;;;26.90;50.00;;;;;;5023731;28;86888;-36
2022/07/24 11:45:54;;;;;;;;;;;26.90;50.00;;;;;;5022530;28;87248;-36
2022/07/24 11:48:20;;;;;;;;;;;27.00;49.90;;;;;;5023395;28;88384;-36
2022/07/24 11:50:46;;;;;;;;;;;27.00;49.70;;;;;;5023555;28;87265;-36
2022/07/24 11:53:11;;;;;;;;;;;27.00;49.50;;;;;;5023231;28;87512;-36
2022/07/24 11:55:37;;;;;;;;;;;27.10;49.60;;;;;;5026391;28;87310;-36
2022/07/24 11:58:02;;;;;;;;;;;27.10;49.50;;;;;;5023546;28;86875;-36
2022/07/24 12:00:28;;;;;;;;;;;27.10;49.60;;;;;;5022851;28;88224;-36
2022/07/24 12:02:56;;;;;;;;;;;27.20;49.30;;;;;;5022576;28;88112;-36
2022/07/24 12:05:26;;;;;;;;;;;27.20;49.20;;;;;;5022997;28;90127;-36
2022/07/24 12:07:52;;;;;;;;;;;27.20;49.20;;;;;;5022738;28;88018;-36
2022/07/24 12:10:21;;;;;;;;;;;27.20;48.90;;;;;;5022874;28;87082;-36
2022/07/24 12:12:48;;;;;;;;;;;27.20;49.20;;;;;;5023013;28;88824;-36
2022/07/24 12:15:14;;;;;;;;;;;27.30;49.40;;;;;;5025360;28;90328;-36
2022/07/24 12:18:00;;;;;;;;;;;27.30;49.00;;;;;;5023170;28;87436;-36
2022/07/24 12:20:29;;;;;;;;;;;27.30;48.80;;;;;;5014737;28;87278;-36
2022/07/24 12:22:56;;;;;;;;;;;27.30;48.70;;;;;;5022935;28;87097;-36
2022/07/24 12:25:22;;;;;;;;;;;27.30;48.80;;;;;;5022909;28;87481;-36
2022/07/24 12:27:48;;;;;;;;;;;27.40;48.60;;;;;;5021784;28;88945;-36
2022/07/24 12:30:18;;;;;;;;;;;27.30;48.70;;;;;;5022849;28;87096;-36
2022/07/24 12:33:13;;;;;;;;;;;27.40;48.80;;;;;;5022874;28;87459;-36
2022/07/24 12:36:01;;;;;;;;;;;27.50;48.80;;;;;;5012314;28;87704;-36
2022/07/24 12:38:31;;;;;;;;;;;27.50;48.70;;;;;;5025635;28;87170;-36
2022/07/24 12:41:01;;;;;;;;;;;27.50;48.90;;;;;;5022389;28;88130;-36
2022/07/24 12:43:28;;;;;;;;;;;27.50;48.70;;;;;;5022954;28;87166;-36
2022/07/24 12:46:10;;;;;;;;;;;27.50;48.90;;;;;;5022786;28;87444;-36
2022/07/24 12:48:36;;;;;;;;;;;27.60;49.00;;;;;;5021904;28;88113;-36
2022/07/24 12:51:04;;;;;;;;;;;27.60;49.00;;;;;;5022245;28;87088;-36
2022/07/24 12:53:31;;;;;;;;;;;27.60;48.90;;;;;;5021645;28;88017;-36
2022/07/24 12:56:04;;;;;;;;;;;27.60;48.70;;;;;;5022094;28;87985;-36
2022/07/24 12:58:29;;;;;;;;;;;27.70;48.80;;;;;;5022401;28;87551;-36
2022/07/24 13:00:58;;;;;;;;;;;27.70;49.00;;;;;;5025017;28;87410;-36
2022/07/24 13:03:25;;;;;;;;;;;27.70;48.90;;;;;;5022512;28;87094;-36
2022/07/24 13:05:54;;;;;;;;;;;27.70;48.70;;;;;;5022363;28;86885;-36
2022/07/24 13:08:20;;;;;;;;;;;27.70;48.90;;;;;;5022037;28;88131;-36
2022/07/24 13:10:45;;;;;;;;;;;27.70;49.00;;;;;;5022234;28;86188;-36
2022/07/24 13:13:11;;;;;;;;;;;27.70;49.10;;;;;;5021987;28;88197;-37
2022/07/24 13:15:36;;;;;;;;;;;27.70;49.10;;;;;;5021785;28;87320;-36
2022/07/24 13:18:02;;;;;;;;;;;27.80;49.20;;;;;;5021680;28;88180;-36
2022/07/24 13:20:27;;;;;;;;;;;27.80;49.10;;;;;;5022181;28;88360;-36
2022/07/24 13:22:53;;;;;;;;;;;27.80;49.10;;;;;;5024567;28;88146;-36
2022/07/24 13:25:18;;;;;;;;;;;27.80;49.20;;;;;;5021830;28;87762;-36
2022/07/24 13:27:44;;;;;;;;;;;27.80;49.20;;;;;;5021576;28;88577;-36
2022/07/24 13:30:10;;;;;;;;;;;27.80;49.80;;;;;;5022214;28;86985;-36
2022/07/24 13:32:36;;;;;;;;;;;27.80;49.20;;;;;;5022096;28;87001;-36
2022/07/24 13:35:01;;;;;;;;;;;27.80;49.20;;;;;;5022166;28;86274;-36
2022/07/24 13:37:27;;;;;;;;;;;27.80;49.10;;;;;;5022162;28;87079;-36
2022/07/24 13:39:52;;;;;;;;;;;27.80;49.20;;;;;;5022022;28;87602;-36
2022/07/24 13:42:18;;;;;;;;;;;27.80;49.20;;;;;;5021144;28;89124;-36
2022/07/24 13:44:43;;;;;;;;;;;27.90;49.30;;;;;;5024790;28;87079;-36
2022/07/24 13:47:08;;;;;;;;;;;27.80;49.20;;;;;;5021388;28;88138;-36
2022/07/24 13:49:34;;;;;;;;;;;27.90;49.30;;;;;;5021757;28;87894;-36
2022/07/24 13:51:59;;;;;;;;;;;27.90;49.30;;;;;;5021906;28;87374;-36
2022/07/24 13:54:25;;;;;;;;;;;27.90;49.30;;;;;;5021453;28;87384;-36
2022/07/24 13:56:52;;;;;;;;;;;27.90;49.30;;;;;;5021556;28;87176;-36
2022/07/24 13:59:17;;;;;;;;;;;27.90;49.30;;;;;;5022016;28;87533;-37
2022/07/24 14:01:43;;;;;;;;;;;27.90;49.40;;;;;;5021362;28;88085;-36
2022/07/24 14:04:08;;;;;;;;;;;28.00;49.40;;;;;;5021605;28;87129;-36
2022/07/24 14:06:34;;;;;;;;;;;28.00;49.50;;;;;;5023637;28;88456;-36
2022/07/24 14:09:00;;;;;;;;;;;28.00;49.40;;;;;;5024158;28;87124;-36
2022/07/24 14:11:26;;;;;;;;;;;28.00;49.40;;;;;;5024827;28;87430;-36
2022/07/24 14:13:51;;;;;;;;;;;28.00;49.30;;;;;;5024714;28;86853;-36
2022/07/24 14:16:17;;;;;;;;;;;28.10;49.40;;;;;;5025158;28;86947;-36